sensor_id;sensor_type;location;lat;lon;timestamp;pressure;altitude;pressure_sealevel;temperature;humidity
62833;BME280;48891;49.220;6.920;2023-03-08T00:00:07;97577.84;;;11.70;49.35
62833;BME280;48891;49.220;6.920;2023-03-08T00:02:33;97539.78;;;11.40;49.46
62833;BME280;48891;49.220;6.920;2023-03-08T00:04:59;97577.97;;;11.69;49.75
62833;BME280;48891;49.220;6.920;2023-03-08T00:07:24;97579.75;;;11.68;49.43
62833;BME280;48891;49.220;6.920;2023-03-08T00:09:49;97566.94;;;11.64;49.61
62833;BME280;48891;49.220;6.920;2023-03-08T00:12:15;97581.44;;;11.69;49.50
62833;BME280;48891;49.220;6.920;2023-03-08T00:14:40;97578.81;;;11.69;49.64
62833;BME280;48891;49.220;6.920;2023-03-08T00:17:05;97580.75;;;11.67;49.31
62833;BME280;48891;49.220;6.920;2023-03-08T00:19:31;97583.25;;;11.69;49.47
62833;BME280;48891;49.220;6.920;2023-03-08T00:21:56;97591.03;;;11.70;49.49
62833;BME280;48891;49.220;6.920;2023-03-08T00:24:22;97584.91;;;11.70;49.47
62833;BME280;48891;49.220;6.920;2023-03-08T00:26:47;97571.00;;;11.68;49.57
62833;BME280;48891;49.220;6.920;2023-03-08T00:29:12;97535.56;;;11.49;49.42
62833;BME280;48891;49.220;6.920;2023-03-08T00:31:37;97566.31;;;11.71;49.56
62833;BME280;48891;49.220;6.920;2023-03-08T00:34:03;97552.41;;;11.69;49.48
62833;BME280;48891;49.220;6.920;2023-03-08T00:36:28;97561.16;;;11.70;49.60
62833;BME280;48891;49.220;6.920;2023-03-08T00:38:55;97566.44;;;11.70;49.47
62833;BME280;48891;49.220;6.920;2023-03-08T00:41:20;97567.44;;;11.69;49.55
62833;BME280;48891;49.220;6.920;2023-03-08T00:43:45;97562.00;;;11.70;49.54
62833;BME280;48891;49.220;6.920;2023-03-08T00:46:11;97554.47;;;11.66;49.39
62833;BME280;48891;49.220;6.920;2023-03-08T00:48:37;97556.00;;;11.68;49.47
62833;BME280;48891;49.220;6.920;2023-03-08T00:51:03;97504.63;;;11.40;49.31
62833;BME280;48891;49.220;6.920;2023-03-08T00:53:28;97545.31;;;11.70;49.47
62833;BME280;48891;49.220;6.920;2023-03-08T00:55:56;97544.50;;;11.69;49.54
62833;BME280;48891;49.220;6.920;2023-03-08T00:58:22;97541.84;;;11.69;49.47
62833;BME280;48891;49.220;6.920;2023-03-08T01:00:48;97547.97;;;11.70;49.39
62833;BME280;48891;49.220;6.920;2023-03-08T01:03:15;97544.50;;;11.69;49.42
62833;BME280;48891;49.220;6.920;2023-03-08T01:05:41;97534.28;;;11.65;49.43
62833;BME280;48891;49.220;6.920;2023-03-08T01:08:07;97536.56;;;11.69;49.33
62833;BME280;48891;49.220;6.920;2023-03-08T01:10:33;97533.22;;;11.67;49.50
62833;BME280;48891;49.220;6.920;2023-03-08T01:12:59;97535.75;;;11.69;49.48
62833;BME280;48891;49.220;6.920;2023-03-08T01:15:24;97498.34;;;11.52;49.41
62833;BME280;48891;49.220;6.920;2023-03-08T01:17:49;97510.66;;;11.63;49.39
62833;BME280;48891;49.220;6.920;2023-03-08T01:20:15;97524.22;;;11.70;49.32
62833;BME280;48891;49.220;6.920;2023-03-08T01:22:40;97521.69;;;11.68;49.50
62833;BME280;48891;49.220;6.920;2023-03-08T01:25:05;97516.81;;;11.64;49.42
62833;BME280;48891;49.220;6.920;2023-03-08T01:27:31;97514.75;;;11.67;49.51
62833;BME280;48891;49.220;6.920;2023-03-08T01:29:57;97514.75;;;11.67;49.47
62833;BME280;48891;49.220;6.920;2023-03-08T01:32:22;97508.50;;;11.68;49.38
62833;BME280;48891;49.220;6.920;2023-03-08T01:34:47;97512.00;;;11.69;49.46
62833;BME280;48891;49.220;6.920;2023-03-08T01:37:13;97511.00;;;11.70;49.39
62833;BME280;48891;49.220;6.920;2023-03-08T01:39:38;97505.72;;;11.70;49.37
62833;BME280;48891;49.220;6.920;2023-03-08T01:42:04;97503.22;;;11.68;49.46
62833;BME280;48891;49.220;6.920;2023-03-08T01:44:57;97506.72;;;11.69;49.42
62833;BME280;48891;49.220;6.920;2023-03-08T01:47:25;97499.75;;;11.68;49.45
62833;BME280;48891;49.220;6.920;2023-03-08T01:49:54;97501.56;;;11.67;49.30
62833;BME280;48891;49.220;6.920;2023-03-08T01:52:24;97488.34;;;11.67;49.47
62833;BME280;48891;49.220;6.920;2023-03-08T01:54:56;97482.94;;;11.69;49.42
62833;BME280;48891;49.220;6.920;2023-03-08T01:57:26;97436.00;;;11.40;49.40
62833;BME280;48891;49.220;6.920;2023-03-08T01:59:55;97486.66;;;11.66;49.43
62833;BME280;48891;49.220;6.920;2023-03-08T02:02:31;97487.38;;;11.68;49.53
62833;BME280;48891;49.220;6.920;2023-03-08T02:04:58;97481.38;;;11.66;49.36
62833;BME280;48891;49.220;6.920;2023-03-08T02:07:23;97478.03;;;11.64;49.34
62833;BME280;48891;49.220;6.920;2023-03-08T02:09:49;97472.41;;;11.69;49.39
62833;BME280;48891;49.220;6.920;2023-03-08T02:12:14;97449.78;;;11.55;49.38
62833;BME280;48891;49.220;6.920;2023-03-08T02:14:43;97460.16;;;11.68;49.28
62833;BME280;48891;49.220;6.920;2023-03-08T02:17:10;97463.63;;;11.68;49.37
62833;BME280;48891;49.220;6.920;2023-03-08T02:20:25;97454.75;;;11.69;49.38
62833;BME280;48891;49.220;6.920;2023-03-08T02:22:52;97454.75;;;11.69;49.41
62833;BME280;48891;49.220;6.920;2023-03-08T02:25:25;97444.19;;;11.69;49.24
62833;BME280;48891;49.220;6.920;2023-03-08T02:27:52;97430.28;;;11.67;49.33
62833;BME280;48891;49.220;6.920;2023-03-08T02:30:26;97423.91;;;11.70;49.39
62833;BME280;48891;49.220;6.920;2023-03-08T02:32:54;97417.78;;;11.69;49.50
62833;BME280;48891;49.220;6.920;2023-03-08T02:35:19;97415.03;;;11.71;49.23
62833;BME280;48891;49.220;6.920;2023-03-08T02:37:44;97390.88;;;11.54;49.35
62833;BME280;48891;49.220;6.920;2023-03-08T02:40:10;97402.78;;;11.70;49.19
62833;BME280;48891;49.220;6.920;2023-03-08T02:42:36;97401.25;;;11.67;49.37
62833;BME280;48891;49.220;6.920;2023-03-08T02:45:01;97372.41;;;11.54;49.28
62833;BME280;48891;49.220;6.920;2023-03-08T02:47:26;97397.50;;;11.70;49.47
62833;BME280;48891;49.220;6.920;2023-03-08T02:49:52;97407.22;;;11.69;49.38
62833;BME280;48891;49.220;6.920;2023-03-08T02:52:17;97405.41;;;11.70;49.21
62833;BME280;48891;49.220;6.920;2023-03-08T02:54:42;97402.91;;;11.68;49.36
62833;BME280;48891;49.220;6.920;2023-03-08T02:57:08;97402.91;;;11.68;49.50
62833;BME280;48891;49.220;6.920;2023-03-08T02:59:33;97382.91;;;11.66;49.38
62833;BME280;48891;49.220;6.920;2023-03-08T03:01:58;97379.16;;;11.68;49.40
62833;BME280;48891;49.220;6.920;2023-03-08T03:04:28;97360.63;;;11.58;49.47
62833;BME280;48891;49.220;6.920;2023-03-08T03:06:53;97368.72;;;11.67;49.39
62833;BME280;48891;49.220;6.920;2023-03-08T03:09:19;97314.06;;;11.36;49.41
62833;BME280;48891;49.220;6.920;2023-03-08T03:11:44;97363.31;;;11.68;49.39
62833;BME280;48891;49.220;6.920;2023-03-08T03:14:09;97308.53;;;11.39;49.42
62833;BME280;48891;49.220;6.920;2023-03-08T03:16:35;97350.97;;;11.69;49.38
62833;BME280;48891;49.220;6.920;2023-03-08T03:19:00;97369.44;;;11.69;49.41
62833;BME280;48891;49.220;6.920;2023-03-08T03:21:26;97362.47;;;11.68;49.41
62833;BME280;48891;49.220;6.920;2023-03-08T03:23:53;97363.00;;;11.62;49.35
62833;BME280;48891;49.220;6.920;2023-03-08T03:26:20;97370.03;;;11.72;49.28
62833;BME280;48891;49.220;6.920;2023-03-08T03:28:46;97329.28;;;11.44;49.28
62833;BME280;48891;49.220;6.920;2023-03-08T03:31:20;97361.38;;;11.70;49.30
62833;BME280;48891;49.220;6.920;2023-03-08T03:33:46;97355.38;;;11.68;49.33
62833;BME280;48891;49.220;6.920;2023-03-08T03:36:14;97297.41;;;11.36;49.33
62833;BME280;48891;49.220;6.920;2023-03-08T03:38:40;97345.53;;;11.70;49.06
62833;BME280;48891;49.220;6.920;2023-03-08T03:41:08;97344.56;;;11.71;49.33
62833;BME280;48891;49.220;6.920;2023-03-08T03:43:34;97343.88;;;11.69;49.39
62833;BME280;48891;49.220;6.920;2023-03-08T03:46:03;97348.59;;;11.66;49.29
62833;BME280;48891;49.220;6.920;2023-03-08T03:48:29;97336.78;;;11.70;49.32
62833;BME280;48891;49.220;6.920;2023-03-08T03:50:59;97341.13;;;11.71;49.30
62833;BME280;48891;49.220;6.920;2023-03-08T03:53:27;97328.88;;;11.70;49.49
62833;BME280;48891;49.220;6.920;2023-03-08T03:55:52;97328.03;;;11.69;49.34
62833;BME280;48891;49.220;6.920;2023-03-08T03:58:18;97320.13;;;11.69;49.34
62833;BME280;48891;49.220;6.920;2023-03-08T04:00:43;97314.84;;;11.69;49.29
62833;BME280;48891;49.220;6.920;2023-03-08T04:03:09;97309.56;;;11.69;49.24
62833;BME280;48891;49.220;6.920;2023-03-08T04:05:34;97313.16;;;11.68;49.42
62833;BME280;48891;49.220;6.920;2023-03-08T04:07:59;97301.78;;;11.68;49.43
62833;BME280;48891;49.220;6.920;2023-03-08T04:10:24;97305.25;;;11.68;49.33
62833;BME280;48891;49.220;6.920;2023-03-08T04:12:50;97302.34;;;11.71;49.39
62833;BME280;48891;49.220;6.920;2023-03-08T04:15:16;97288.31;;;11.71;49.26
62833;BME280;48891;49.220;6.920;2023-03-08T04:17:42;97290.69;;;11.74;49.29
62833;BME280;48891;49.220;6.920;2023-03-08T04:20:07;97276.91;;;11.70;49.27
62833;BME280;48891;49.220;6.920;2023-03-08T04:22:33;97272.72;;;11.68;49.31
62833;BME280;48891;49.220;6.920;2023-03-08T04:24:58;97257.72;;;11.68;49.29
62833;BME280;48891;49.220;6.920;2023-03-08T04:27:24;97190.88;;;11.27;49.17
62833;BME280;48891;49.220;6.920;2023-03-08T04:29:49;97247.28;;;11.67;49.39
62833;BME280;48891;49.220;6.920;2023-03-08T04:32:14;97236.16;;;11.63;49.24
62833;BME280;48891;49.220;6.920;2023-03-08T04:34:40;97252.44;;;11.68;49.32
62833;BME280;48891;49.220;6.920;2023-03-08T04:37:05;97253.31;;;11.69;49.34
62833;BME280;48891;49.220;6.920;2023-03-08T04:39:30;97255.94;;;11.69;49.23
62833;BME280;48891;49.220;6.920;2023-03-08T04:41:55;97179.06;;;11.31;49.21
62833;BME280;48891;49.220;6.920;2023-03-08T04:44:21;97233.00;;;11.69;49.26
62833;BME280;48891;49.220;6.920;2023-03-08T04:46:46;97230.50;;;11.68;49.32
62833;BME280;48891;49.220;6.920;2023-03-08T04:49:11;97229.69;;;11.67;49.39
62833;BME280;48891;49.220;6.920;2023-03-08T04:51:36;97227.16;;;11.66;49.22
62833;BME280;48891;49.220;6.920;2023-03-08T04:54:02;97226.91;;;11.69;49.23
62833;BME280;48891;49.220;6.920;2023-03-08T04:56:27;97231.19;;;11.70;49.28
62833;BME280;48891;49.220;6.920;2023-03-08T04:58:52;97225.09;;;11.69;49.34
62833;BME280;48891;49.220;6.920;2023-03-08T05:01:20;97228.69;;;11.68;49.21
62833;BME280;48891;49.220;6.920;2023-03-08T05:03:46;97213.72;;;11.69;49.45
62833;BME280;48891;49.220;6.920;2023-03-08T05:06:12;97210.22;;;11.68;49.28
62833;BME280;48891;49.220;6.920;2023-03-08T05:08:37;97189.66;;;11.62;49.35
62833;BME280;48891;49.220;6.920;2023-03-08T05:11:03;97198.00;;;11.67;49.43
62833;BME280;48891;49.220;6.920;2023-03-08T05:13:31;97183.94;;;11.67;49.32
62833;BME280;48891;49.220;6.920;2023-03-08T05:15:57;97182.16;;;11.67;49.39
62833;BME280;48891;49.220;6.920;2023-03-08T05:18:22;97170.91;;;11.65;49.31
62833;BME280;48891;49.220;6.920;2023-03-08T05:20:59;97171.59;;;11.67;49.38
62833;BME280;48891;49.220;6.920;2023-03-08T05:23:26;97172.56;;;11.66;49.36
62833;BME280;48891;49.220;6.920;2023-03-08T05:25:55;97166.19;;;11.69;49.39
62833;BME280;48891;49.220;6.920;2023-03-08T05:28:26;97147.41;;;11.62;49.24
62833;BME280;48891;49.220;6.920;2023-03-08T05:33:34;97142.44;;;11.69;49.31
62833;BME280;48891;49.220;6.920;2023-03-08T05:35:59;97145.22;;;11.67;49.31
62833;BME280;48891;49.220;6.920;2023-03-08T05:38:25;97134.53;;;11.69;49.33
62833;BME280;48891;49.220;6.920;2023-03-08T05:40:51;97123.25;;;11.67;49.47
62833;BME280;48891;49.220;6.920;2023-03-08T05:43:17;97138.94;;;11.68;49.43
62833;BME280;48891;49.220;6.920;2023-03-08T05:45:42;97120.34;;;11.70;49.48
62833;BME280;48891;49.220;6.920;2023-03-08T05:48:08;97095.16;;;11.56;49.44
62833;BME280;48891;49.220;6.920;2023-03-08T05:50:36;97085.47;;;11.56;49.22
62833;BME280;48891;49.220;6.920;2023-03-08T05:53:01;97112.41;;;11.70;49.41
62833;BME280;48891;49.220;6.920;2023-03-08T05:55:26;97063.44;;;11.36;49.49
62833;BME280;48891;49.220;6.920;2023-03-08T05:57:52;97107.13;;;11.70;49.23
62833;BME280;48891;49.220;6.920;2023-03-08T06:00:17;97110.78;;;11.69;49.42
62833;BME280;48891;49.220;6.920;2023-03-08T06:02:42;97102.97;;;11.67;49.40
62833;BME280;48891;49.220;6.920;2023-03-08T06:05:08;97061.53;;;11.38;49.47
62833;BME280;48891;49.220;6.920;2023-03-08T06:07:33;97097.97;;;11.64;49.41
62833;BME280;48891;49.220;6.920;2023-03-08T06:09:58;97095.31;;;11.64;49.50
62833;BME280;48891;49.220;6.920;2023-03-08T06:12:24;97108.25;;;11.67;49.55
62833;BME280;48891;49.220;6.920;2023-03-08T06:14:49;97099.34;;;11.68;49.57
62833;BME280;48891;49.220;6.920;2023-03-08T06:17:14;97103.53;;;11.71;49.46
62833;BME280;48891;49.220;6.920;2023-03-08T06:19:40;97101.03;;;11.69;49.65
62833;BME280;48891;49.220;6.920;2023-03-08T06:22:05;97100.91;;;11.71;49.61
62833;BME280;48891;49.220;6.920;2023-03-08T06:24:30;97068.19;;;11.52;49.59
62833;BME280;48891;49.220;6.920;2023-03-08T06:26:55;97094.06;;;11.68;49.58
62833;BME280;48891;49.220;6.920;2023-03-08T06:29:21;97080.88;;;11.68;49.59
62833;BME280;48891;49.220;6.920;2023-03-08T06:31:46;97012.63;;;11.34;49.60
62833;BME280;48891;49.220;6.920;2023-03-08T06:34:11;97071.31;;;11.67;49.67
62833;BME280;48891;49.220;6.920;2023-03-08T06:36:37;97064.22;;;11.68;49.72
62833;BME280;48891;49.220;6.920;2023-03-08T06:39:03;97032.38;;;11.50;49.82
62833;BME280;48891;49.220;6.920;2023-03-08T06:41:28;97045.75;;;11.68;49.80
62833;BME280;48891;49.220;6.920;2023-03-08T06:43:53;96982.91;;;11.32;50.09
62833;BME280;48891;49.220;6.920;2023-03-08T06:46:18;97009.03;;;11.45;49.94
62833;BME280;48891;49.220;6.920;2023-03-08T06:48:45;97028.78;;;11.61;50.02
62833;BME280;48891;49.220;6.920;2023-03-08T06:51:10;97029.91;;;11.68;50.04
62833;BME280;48891;49.220;6.920;2023-03-08T06:53:36;97029.06;;;11.67;49.90
62833;BME280;48891;49.220;6.920;2023-03-08T06:56:01;97020.16;;;11.68;49.97
62833;BME280;48891;49.220;6.920;2023-03-08T06:58:26;97018.53;;;11.67;50.05
62833;BME280;48891;49.220;6.920;2023-03-08T07:00:53;97016.28;;;11.63;50.04
62833;BME280;48891;49.220;6.920;2023-03-08T07:03:18;96991.00;;;11.50;50.01
62833;BME280;48891;49.220;6.920;2023-03-08T07:05:43;97007.09;;;11.67;50.08
62833;BME280;48891;49.220;6.920;2023-03-08T07:08:08;97003.50;;;11.68;50.06
62833;BME280;48891;49.220;6.920;2023-03-08T07:10:34;97003.38;;;11.69;50.10
62833;BME280;48891;49.220;6.920;2023-03-08T07:12:59;96984.91;;;11.69;50.14
62833;BME280;48891;49.220;6.920;2023-03-08T07:15:25;96984.91;;;11.69;50.07
62833;BME280;48891;49.220;6.920;2023-03-08T07:17:52;96977.13;;;11.68;50.01
62833;BME280;48891;49.220;6.920;2023-03-08T07:20:19;96965.03;;;11.65;50.17
62833;BME280;48891;49.220;6.920;2023-03-08T07:22:45;96961.28;;;11.68;50.38
62833;BME280;48891;49.220;6.920;2023-03-08T07:25:12;96957.50;;;11.70;50.33
62833;BME280;48891;49.220;6.920;2023-03-08T07:27:38;96947.94;;;11.69;50.20
62833;BME280;48891;49.220;6.920;2023-03-08T07:30:03;96934.19;;;11.66;50.30
62833;BME280;48891;49.220;6.920;2023-03-08T07:32:29;96940.16;;;11.68;50.31
62833;BME280;48891;49.220;6.920;2023-03-08T07:34:55;96876.84;;;11.29;50.37
62833;BME280;48891;49.220;6.920;2023-03-08T07:37:20;96911.84;;;11.60;50.24
62833;BME280;48891;49.220;6.920;2023-03-08T07:39:45;96922.81;;;11.65;50.42
62833;BME280;48891;49.220;6.920;2023-03-08T07:42:10;96874.22;;;11.38;50.57
62833;BME280;48891;49.220;6.920;2023-03-08T07:44:36;96904.34;;;11.65;50.24
62833;BME280;48891;49.220;6.920;2023-03-08T07:47:02;96900.44;;;11.69;50.30
62833;BME280;48891;49.220;6.920;2023-03-08T07:49:28;96879.19;;;11.61;50.45
62833;BME280;48891;49.220;6.920;2023-03-08T07:51:54;96872.66;;;11.65;50.35
62833;BME280;48891;49.220;6.920;2023-03-08T07:54:19;96871.00;;;11.64;50.34
62833;BME280;48891;49.220;6.920;2023-03-08T07:56:44;96856.16;;;11.53;50.40
62833;BME280;48891;49.220;6.920;2023-03-08T07:59:10;96883.91;;;11.67;50.47
62833;BME280;48891;49.220;6.920;2023-03-08T08:01:35;96877.78;;;11.67;50.37
62833;BME280;48891;49.220;6.920;2023-03-08T08:04:00;96873.34;;;11.67;50.42
62833;BME280;48891;49.220;6.920;2023-03-08T08:06:27;96817.84;;;11.39;50.50
62833;BME280;48891;49.220;6.920;2023-03-08T08:08:54;96881.41;;;11.66;50.54
62833;BME280;48891;49.220;6.920;2023-03-08T08:11:19;96877.09;;;11.65;50.69
62833;BME280;48891;49.220;6.920;2023-03-08T08:13:45;96873.50;;;11.66;50.65
62833;BME280;48891;49.220;6.920;2023-03-08T08:16:10;96872.81;;;11.64;50.63
62833;BME280;48891;49.220;6.920;2023-03-08T08:18:36;96834.66;;;11.38;50.72
62833;BME280;48891;49.220;6.920;2023-03-08T08:21:06;96876.97;;;11.66;50.67
62833;BME280;48891;49.220;6.920;2023-03-08T08:23:32;96863.63;;;11.68;50.63
62833;BME280;48891;49.220;6.920;2023-03-08T08:25:59;96859.75;;;11.62;50.59
62833;BME280;48891;49.220;6.920;2023-03-08T08:28:25;96854.03;;;11.67;50.81
62833;BME280;48891;49.220;6.920;2023-03-08T08:31:18;96852.25;;;11.67;50.75
62833;BME280;48891;49.220;6.920;2023-03-08T08:33:44;96839.72;;;11.59;50.71
62833;BME280;48891;49.220;6.920;2023-03-08T08:36:14;96844.88;;;11.61;50.67
62833;BME280;48891;49.220;6.920;2023-03-08T08:38:40;96838.38;;;11.65;50.79
62833;BME280;48891;49.220;6.920;2023-03-08T08:41:07;96830.44;;;11.65;50.94
62833;BME280;48891;49.220;6.920;2023-03-08T08:43:34;96829.44;;;11.66;50.91
62833;BME280;48891;49.220;6.920;2023-03-08T08:46:01;96827.63;;;11.67;50.83
62833;BME280;48891;49.220;6.920;2023-03-08T08:48:27;96818.91;;;11.66;50.98
62833;BME280;48891;49.220;6.920;2023-03-08T08:50:53;96831.94;;;11.68;51.08
62833;BME280;48891;49.220;6.920;2023-03-08T08:53:19;96826.53;;;11.69;51.25
62833;BME280;48891;49.220;6.920;2023-03-08T08:55:44;96804.75;;;11.67;50.99
62833;BME280;48891;49.220;6.920;2023-03-08T08:58:10;96774.75;;;11.49;51.10
62833;BME280;48891;49.220;6.920;2023-03-08T09:00:36;96802.09;;;11.67;51.18
62833;BME280;48891;49.220;6.920;2023-03-08T09:03:03;96806.53;;;11.67;51.27
62833;BME280;48891;49.220;6.920;2023-03-08T09:05:29;96787.53;;;11.53;51.12
62833;BME280;48891;49.220;6.920;2023-03-08T09:07:57;96805.97;;;11.63;51.38
62833;BME280;48891;49.220;6.920;2023-03-08T09:10:23;96799.59;;;11.66;51.52
62833;BME280;48891;49.220;6.920;2023-03-08T09:12:48;96801.41;;;11.65;51.41
62833;BME280;48891;49.220;6.920;2023-03-08T09:15:13;96787.81;;;11.50;51.48
62833;BME280;48891;49.220;6.920;2023-03-08T09:17:39;96800.41;;;11.66;51.56
62833;BME280;48891;49.220;6.920;2023-03-08T09:20:05;96793.31;;;11.67;52.12
62833;BME280;48891;49.220;6.920;2023-03-08T09:22:31;96788.03;;;11.67;52.45
62833;BME280;48891;49.220;6.920;2023-03-08T09:24:57;96787.91;;;11.68;52.30
62833;BME280;48891;49.220;6.920;2023-03-08T09:27:22;96791.41;;;11.69;52.36
62833;BME280;48891;49.220;6.920;2023-03-08T09:29:47;96788.22;;;11.65;52.32
62833;BME280;48891;49.220;6.920;2023-03-08T09:32:12;96792.22;;;11.69;52.19
62833;BME280;48891;49.220;6.920;2023-03-08T09:34:38;96756.84;;;11.52;52.33
62833;BME280;48891;49.220;6.920;2023-03-08T09:37:03;96780.84;;;11.69;52.29
62833;BME280;48891;49.220;6.920;2023-03-08T09:39:28;96783.31;;;11.70;52.26
62833;BME280;48891;49.220;6.920;2023-03-08T09:41:59;96776.38;;;11.69;52.36
62833;BME280;48891;49.220;6.920;2023-03-08T09:44:40;96777.22;;;11.70;52.27
62833;BME280;48891;49.220;6.920;2023-03-08T09:52:39;96770.13;;;11.70;52.45
62833;BME280;48891;49.220;6.920;2023-03-08T09:55:20;96775.25;;;11.72;52.52
62833;BME280;48891;49.220;6.920;2023-03-08T09:57:51;96759.19;;;11.65;52.50
62833;BME280;48891;49.220;6.920;2023-03-08T10:00:20;96748.03;;;11.71;52.63
62833;BME280;48891;49.220;6.920;2023-03-08T10:08:26;96743.59;;;11.72;52.74
62833;BME280;48891;49.220;6.920;2023-03-08T10:11:09;96730.38;;;11.72;52.78
62833;BME280;48891;49.220;6.920;2023-03-08T10:13:40;96731.25;;;11.72;52.68
62833;BME280;48891;49.220;6.920;2023-03-08T10:16:10;96735.53;;;11.73;52.79
62833;BME280;48891;49.220;6.920;2023-03-08T10:18:47;96733.16;;;11.70;52.85
62833;BME280;48891;49.220;6.920;2023-03-08T10:21:17;96728.59;;;11.72;52.88
62833;BME280;48891;49.220;6.920;2023-03-08T10:23:46;96733.75;;;11.74;52.98
62833;BME280;48891;49.220;6.920;2023-03-08T10:26:13;96735.38;;;11.75;52.99
62833;BME280;48891;49.220;6.920;2023-03-08T10:28:39;96735.66;;;11.72;52.90
62833;BME280;48891;49.220;6.920;2023-03-08T10:31:24;96734.41;;;11.76;53.08
62833;BME280;48891;49.220;6.920;2023-03-08T10:34:16;96732.59;;;11.76;53.07
62833;BME280;48891;49.220;6.920;2023-03-08T10:37:06;96736.06;;;11.77;53.15
62833;BME280;48891;49.220;6.920;2023-03-08T10:39:34;96732.47;;;11.78;53.22
62833;BME280;48891;49.220;6.920;2023-03-08T10:42:05;96728.16;;;11.77;53.29
62833;BME280;48891;49.220;6.920;2023-03-08T10:44:37;96726.19;;;11.79;53.21
62833;BME280;48891;49.220;6.920;2023-03-08T10:47:04;96727.03;;;11.80;53.31
62833;BME280;48891;49.220;6.920;2023-03-08T10:49:42;96710.94;;;11.73;53.33
62833;BME280;48891;49.220;6.920;2023-03-08T10:52:21;96686.44;;;11.53;53.44
62833;BME280;48891;49.220;6.920;2023-03-08T10:54:59;96723.41;;;11.81;53.45
62833;BME280;48891;49.220;6.920;2023-03-08T10:57:25;96726.19;;;11.79;53.55
62833;BME280;48891;49.220;6.920;2023-03-08T10:59:50;96727.03;;;11.80;53.46
62833;BME280;48891;49.220;6.920;2023-03-08T11:02:17;96717.03;;;11.73;53.64
62833;BME280;48891;49.220;6.920;2023-03-08T11:04:51;96733.16;;;11.80;53.45
62833;BME280;48891;49.220;6.920;2023-03-08T11:07:22;96740.25;;;11.80;53.67
62833;BME280;48891;49.220;6.920;2023-03-08T11:09:48;96740.25;;;11.80;53.56
62833;BME280;48891;49.220;6.920;2023-03-08T11:12:24;96745.38;;;11.81;53.57
62833;BME280;48891;49.220;6.920;2023-03-08T11:14:51;96740.09;;;11.81;53.58
62833;BME280;48891;49.220;6.920;2023-03-08T11:17:22;96748.84;;;11.82;53.59
62833;BME280;48891;49.220;6.920;2023-03-08T11:19:59;96753.13;;;11.83;53.79
62833;BME280;48891;49.220;6.920;2023-03-08T11:23:05;96750.47;;;11.83;53.83
62833;BME280;48891;49.220;6.920;2023-03-08T11:25:58;96752.31;;;11.82;53.92
62833;BME280;48891;49.220;6.920;2023-03-08T11:31:25;96749.53;;;11.84;53.94
62833;BME280;48891;49.220;6.920;2023-03-08T11:39:31;96756.63;;;11.83;54.03
62833;BME280;48891;49.220;6.920;2023-03-08T11:44:45;96757.44;;;11.84;54.08
62833;BME280;48891;49.220;6.920;2023-03-08T11:52:34;96749.66;;;11.82;54.29
62833;BME280;48891;49.220;6.920;2023-03-08T11:55:27;96758.25;;;11.84;54.43
62833;BME280;48891;49.220;6.920;2023-03-08T11:58:10;96753.84;;;11.85;54.46
62833;BME280;48891;49.220;6.920;2023-03-08T12:00:40;96768.69;;;11.86;54.30
62833;BME280;48891;49.220;6.920;2023-03-08T12:03:29;96762.59;;;11.85;54.59
62833;BME280;48891;49.220;6.920;2023-03-08T12:06:00;96746.75;;;11.85;54.63
62833;BME280;48891;49.220;6.920;2023-03-08T12:08:44;96757.31;;;11.85;54.62
62833;BME280;48891;49.220;6.920;2023-03-08T12:11:17;96746.59;;;11.87;54.65
62833;BME280;48891;49.220;6.920;2023-03-08T12:13:46;96752.03;;;11.85;54.71
62833;BME280;48891;49.220;6.920;2023-03-08T12:16:31;96758.94;;;11.86;54.90
62833;BME280;48891;49.220;6.920;2023-03-08T12:19:18;96770.22;;;11.88;54.92
62833;BME280;48891;49.220;6.920;2023-03-08T12:27:13;96776.59;;;11.86;54.92
62833;BME280;48891;49.220;6.920;2023-03-08T12:29:48;96701.97;;;11.56;54.93
62833;BME280;48891;49.220;6.920;2023-03-08T12:32:18;96753.66;;;11.86;55.02
62833;BME280;48891;49.220;6.920;2023-03-08T12:34:45;96751.34;;;11.83;55.27
62833;BME280;48891;49.220;6.920;2023-03-08T12:39:58;96761.44;;;11.88;55.23
62833;BME280;48891;49.220;6.920;2023-03-08T12:42:29;96765.91;;;11.87;55.44
62833;BME280;48891;49.220;6.920;2023-03-08T12:45:25;96756.16;;;11.88;55.28
62833;BME280;48891;49.220;6.920;2023-03-08T12:47:56;96755.34;;;11.87;55.24
62833;BME280;48891;49.220;6.920;2023-03-08T12:50:24;96755.34;;;11.87;55.38
62833;BME280;48891;49.220;6.920;2023-03-08T12:52:50;96752.69;;;11.87;55.41
62833;BME280;48891;49.220;6.920;2023-03-08T12:55:20;96753.53;;;11.88;55.39
62833;BME280;48891;49.220;6.920;2023-03-08T12:57:52;96757.03;;;11.88;55.36
62833;BME280;48891;49.220;6.920;2023-03-08T13:05:32;96738.53;;;11.88;55.67
62833;BME280;48891;49.220;6.920;2023-03-08T13:15:44;96743.81;;;11.88;55.82
62833;BME280;48891;49.220;6.920;2023-03-08T13:18:14;96735.03;;;11.88;55.79
62833;BME280;48891;49.220;6.920;2023-03-08T13:28:34;96735.75;;;11.90;55.94
62833;BME280;48891;49.220;6.920;2023-03-08T13:31:02;96689.03;;;11.63;55.93
62833;BME280;48891;49.220;6.920;2023-03-08T13:33:40;96745.34;;;11.91;56.09
62833;BME280;48891;49.220;6.920;2023-03-08T13:36:27;96744.53;;;11.90;56.08
62833;BME280;48891;49.220;6.920;2023-03-08T13:39:02;96742.72;;;11.91;56.15
62833;BME280;48891;49.220;6.920;2023-03-08T13:41:39;96731.44;;;11.89;56.15
62833;BME280;48891;49.220;6.920;2023-03-08T13:44:07;96731.44;;;11.89;56.25
62833;BME280;48891;49.220;6.920;2023-03-08T13:46:37;96742.81;;;11.89;56.10
62833;BME280;48891;49.220;6.920;2023-03-08T13:49:12;96735.75;;;11.90;56.34
62833;BME280;48891;49.220;6.920;2023-03-08T13:51:38;96710.94;;;11.73;56.36
62833;BME280;48891;49.220;6.920;2023-03-08T13:54:04;96758.56;;;11.91;56.52
62833;BME280;48891;49.220;6.920;2023-03-08T13:56:29;96721.22;;;11.76;56.43
62833;BME280;48891;49.220;6.920;2023-03-08T13:58:56;96704.19;;;11.61;56.47
62833;BME280;48891;49.220;6.920;2023-03-08T14:01:25;96754.09;;;11.91;56.40
62833;BME280;48891;49.220;6.920;2023-03-08T14:03:52;96752.31;;;11.92;56.40